sensor_id;sensor_type;location;lat;lon;timestamp;temperature;humidity
3275;DHT22;1649;53.672;10.064;2023-12-07T00:00:10;0.90;99.90
3275;DHT22;1649;53.672;10.064;2023-12-07T00:02:36;0.90;99.90
3275;DHT22;1649;53.672;10.064;2023-12-07T00:05:01;0.90;99.90
3275;DHT22;1649;53.672;10.064;2023-12-07T00:07:27;0.90;99.90
3275;DHT22;1649;53.672;10.064;2023-12-07T00:09:52;0.80;99.90
3275;DHT22;1649;53.672;10.064;2023-12-07T00:12:18;0.80;99.90
3275;DHT22;1649;53.672;10.064;2023-12-07T00:14:43;0.80;99.90
3275;DHT22;1649;53.672;10.064;2023-12-07T00:17:08;0.90;99.90
3275;DHT22;1649;53.672;10.064;2023-12-07T00:19:34;0.90;99.90
3275;DHT22;1649;53.672;10.064;2023-12-07T00:21:59;0.90;99.90
3275;DHT22;1649;53.672;10.064;2023-12-07T00:24:25;0.80;99.90
3275;DHT22;1649;53.672;10.064;2023-12-07T00:26:50;0.80;99.90
3275;DHT22;1649;53.672;10.064;2023-12-07T00:29:16;0.80;99.90
3275;DHT22;1649;53.672;10.064;2023-12-07T00:31:41;0.80;99.90
3275;DHT22;1649;53.672;10.064;2023-12-07T00:34:07;0.80;99.90
3275;DHT22;1649;53.672;10.064;2023-12-07T00:36:35;0.80;99.90
3275;DHT22;1649;53.672;10.064;2023-12-07T00:39:00;0.80;99.90
3275;DHT22;1649;53.672;10.064;2023-12-07T00:41:26;0.90;99.90
3275;DHT22;1649;53.672;10.064;2023-12-07T00:43:51;0.90;99.90
3275;DHT22;1649;53.672;10.064;2023-12-07T00:46:17;0.90;99.90
3275;DHT22;1649;53.672;10.064;2023-12-07T00:48:42;0.90;99.90
3275;DHT22;1649;53.672;10.064;2023-12-07T00:51:08;0.90;99.90
3275;DHT22;1649;53.672;10.064;2023-12-07T00:53:33;0.90;99.90
3275;DHT22;1649;53.672;10.064;2023-12-07T00:55:58;0.80;99.90
3275;DHT22;1649;53.672;10.064;2023-12-07T00:58:24;0.80;99.90
3275;DHT22;1649;53.672;10.064;2023-12-07T01:00:50;0.80;99.90
3275;DHT22;1649;53.672;10.064;2023-12-07T01:03:16;0.80;99.90
3275;DHT22;1649;53.672;10.064;2023-12-07T01:05:41;0.90;99.90
3275;DHT22;1649;53.672;10.064;2023-12-07T01:08:07;0.90;99.90
3275;DHT22;1649;53.672;10.064;2023-12-07T01:10:32;0.90;99.90
3275;DHT22;1649;53.672;10.064;2023-12-07T01:12:58;1.00;99.90
3275;DHT22;1649;53.672;10.064;2023-12-07T01:15:23;0.90;99.90
3275;DHT22;1649;53.672;10.064;2023-12-07T01:17:48;0.90;99.90
3275;DHT22;1649;53.672;10.064;2023-12-07T01:20:14;1.00;99.90
3275;DHT22;1649;53.672;10.064;2023-12-07T01:22:40;0.90;99.90
3275;DHT22;1649;53.672;10.064;2023-12-07T01:25:11;0.90;99.90
3275;DHT22;1649;53.672;10.064;2023-12-07T01:27:36;0.90;99.90
3275;DHT22;1649;53.672;10.064;2023-12-07T01:30:02;0.90;99.90
3275;DHT22;1649;53.672;10.064;2023-12-07T01:32:29;0.80;99.90
3275;DHT22;1649;53.672;10.064;2023-12-07T01:34:54;0.80;99.90
3275;DHT22;1649;53.672;10.064;2023-12-07T01:37:20;0.80;99.90
3275;DHT22;1649;53.672;10.064;2023-12-07T01:39:45;0.80;99.90
3275;DHT22;1649;53.672;10.064;2023-12-07T01:42:11;0.90;99.90
3275;DHT22;1649;53.672;10.064;2023-12-07T01:44:38;0.90;99.90
3275;DHT22;1649;53.672;10.064;2023-12-07T01:47:04;0.90;99.90
3275;DHT22;1649;53.672;10.064;2023-12-07T01:49:30;1.00;99.90
3275;DHT22;1649;53.672;10.064;2023-12-07T01:51:56;0.90;99.90
3275;DHT22;1649;53.672;10.064;2023-12-07T01:54:22;0.80;99.90
3275;DHT22;1649;53.672;10.064;2023-12-07T01:56:48;0.80;99.90
3275;DHT22;1649;53.672;10.064;2023-12-07T01:59:14;0.90;99.90
3275;DHT22;1649;53.672;10.064;2023-12-07T02:01:39;0.90;99.90
3275;DHT22;1649;53.672;10.064;2023-12-07T02:04:05;0.90;99.90
3275;DHT22;1649;53.672;10.064;2023-12-07T02:06:30;0.90;99.90
3275;DHT22;1649;53.672;10.064;2023-12-07T02:08:56;0.80;99.90
3275;DHT22;1649;53.672;10.064;2023-12-07T02:11:22;0.90;99.90
3275;DHT22;1649;53.672;10.064;2023-12-07T02:13:47;0.90;99.90
3275;DHT22;1649;53.672;10.064;2023-12-07T02:16:19;0.80;99.90
3275;DHT22;1649;53.672;10.064;2023-12-07T02:22:10;0.90;99.90
3275;DHT22;1649;53.672;10.064;2023-12-07T02:24:37;0.90;99.90
3275;DHT22;1649;53.672;10.064;2023-12-07T02:27:03;0.80;99.90
3275;DHT22;1649;53.672;10.064;2023-12-07T02:29:29;0.80;99.90
3275;DHT22;1649;53.672;10.064;2023-12-07T02:31:54;0.90;99.90
3275;DHT22;1649;53.672;10.064;2023-12-07T02:34:20;0.90;99.90
3275;DHT22;1649;53.672;10.064;2023-12-07T02:36:46;0.90;99.90
3275;DHT22;1649;53.672;10.064;2023-12-07T02:39:13;0.90;99.90
3275;DHT22;1649;53.672;10.064;2023-12-07T02:41:40;0.90;99.90
3275;DHT22;1649;53.672;10.064;2023-12-07T02:44:06;0.90;99.90
3275;DHT22;1649;53.672;10.064;2023-12-07T02:46:33;0.90;99.90
3275;DHT22;1649;53.672;10.064;2023-12-07T02:48:58;0.90;99.90
3275;DHT22;1649;53.672;10.064;2023-12-07T02:51:24;0.90;99.90
3275;DHT22;1649;53.672;10.064;2023-12-07T02:53:50;0.90;99.90
3275;DHT22;1649;53.672;10.064;2023-12-07T02:56:15;0.90;99.90
3275;DHT22;1649;53.672;10.064;2023-12-07T02:58:41;0.90;99.90
3275;DHT22;1649;53.672;10.064;2023-12-07T03:01:06;0.90;99.90
3275;DHT22;1649;53.672;10.064;2023-12-07T03:03:33;0.90;99.90
3275;DHT22;1649;53.672;10.064;2023-12-07T03:05:58;0.90;99.90
3275;DHT22;1649;53.672;10.064;2023-12-07T03:08:23;0.90;99.90
3275;DHT22;1649;53.672;10.064;2023-12-07T03:10:49;0.90;99.90
3275;DHT22;1649;53.672;10.064;2023-12-07T03:13:14;0.90;99.90
3275;DHT22;1649;53.672;10.064;2023-12-07T03:15:40;0.90;99.90
3275;DHT22;1649;53.672;10.064;2023-12-07T03:18:06;0.90;99.90
3275;DHT22;1649;53.672;10.064;2023-12-07T03:20:32;0.90;99.90
3275;DHT22;1649;53.672;10.064;2023-12-07T03:22:58;0.90;99.90
3275;DHT22;1649;53.672;10.064;2023-12-07T03:25:23;0.90;99.90
3275;DHT22;1649;53.672;10.064;2023-12-07T03:27:49;0.90;99.90
3275;DHT22;1649;53.672;10.064;2023-12-07T03:30:15;1.00;99.90
3275;DHT22;1649;53.672;10.064;2023-12-07T03:32:40;0.90;99.90
3275;DHT22;1649;53.672;10.064;2023-12-07T03:35:06;0.90;99.90
3275;DHT22;1649;53.672;10.064;2023-12-07T03:37:32;0.90;99.90
3275;DHT22;1649;53.672;10.064;2023-12-07T03:39:57;0.90;99.90
3275;DHT22;1649;53.672;10.064;2023-12-07T03:42:23;0.90;99.90
3275;DHT22;1649;53.672;10.064;2023-12-07T03:44:48;0.90;99.90
3275;DHT22;1649;53.672;10.064;2023-12-07T03:47:14;0.90;99.90
3275;DHT22;1649;53.672;10.064;2023-12-07T03:49:39;0.90;99.90
3275;DHT22;1649;53.672;10.064;2023-12-07T03:52:06;0.90;99.90
3275;DHT22;1649;53.672;10.064;2023-12-07T03:54:32;0.90;99.90
3275;DHT22;1649;53.672;10.064;2023-12-07T03:56:57;0.90;99.90
3275;DHT22;1649;53.672;10.064;2023-12-07T03:59:23;0.90;99.90
3275;DHT22;1649;53.672;10.064;2023-12-07T04:01:48;0.90;99.90
3275;DHT22;1649;53.672;10.064;2023-12-07T04:04:14;0.90;99.90
3275;DHT22;1649;53.672;10.064;2023-12-07T04:06:40;0.90;99.90
3275;DHT22;1649;53.672;10.064;2023-12-07T04:09:05;0.90;99.90
3275;DHT22;1649;53.672;10.064;2023-12-07T04:11:31;0.90;99.90
3275;DHT22;1649;53.672;10.064;2023-12-07T04:13:56;0.90;99.90
3275;DHT22;1649;53.672;10.064;2023-12-07T04:16:22;0.90;99.90
3275;DHT22;1649;53.672;10.064;2023-12-07T04:18:48;0.90;99.90
3275;DHT22;1649;53.672;10.064;2023-12-07T04:21:13;0.90;99.90
3275;DHT22;1649;53.672;10.064;2023-12-07T04:23:39;0.90;99.90
3275;DHT22;1649;53.672;10.064;2023-12-07T04:26:04;1.00;99.90
3275;DHT22;1649;53.672;10.064;2023-12-07T04:28:30;0.90;99.90
3275;DHT22;1649;53.672;10.064;2023-12-07T04:30:56;1.00;99.90
3275;DHT22;1649;53.672;10.064;2023-12-07T04:33:21;1.00;99.90
3275;DHT22;1649;53.672;10.064;2023-12-07T04:35:47;1.00;99.90
3275;DHT22;1649;53.672;10.064;2023-12-07T04:38:12;1.00;99.90
3275;DHT22;1649;53.672;10.064;2023-12-07T04:40:38;1.10;99.90
3275;DHT22;1649;53.672;10.064;2023-12-07T04:43:03;1.10;99.90
3275;DHT22;1649;53.672;10.064;2023-12-07T04:45:29;1.00;99.90
3275;DHT22;1649;53.672;10.064;2023-12-07T04:47:55;1.00;99.90
3275;DHT22;1649;53.672;10.064;2023-12-07T04:50:22;1.00;99.90
3275;DHT22;1649;53.672;10.064;2023-12-07T04:52:47;1.10;99.90
3275;DHT22;1649;53.672;10.064;2023-12-07T04:55:13;1.10;99.90
3275;DHT22;1649;53.672;10.064;2023-12-07T04:57:40;1.10;99.90
3275;DHT22;1649;53.672;10.064;2023-12-07T05:00:06;1.10;99.90
3275;DHT22;1649;53.672;10.064;2023-12-07T05:02:32;1.10;99.90
3275;DHT22;1649;53.672;10.064;2023-12-07T05:04:58;1.10;99.90
3275;DHT22;1649;53.672;10.064;2023-12-07T05:07:23;1.10;99.90
3275;DHT22;1649;53.672;10.064;2023-12-07T05:09:49;1.10;99.90
3275;DHT22;1649;53.672;10.064;2023-12-07T05:12:16;1.00;99.90
3275;DHT22;1649;53.672;10.064;2023-12-07T05:14:42;1.00;99.90
3275;DHT22;1649;53.672;10.064;2023-12-07T05:17:07;1.00;99.90
3275;DHT22;1649;53.672;10.064;2023-12-07T05:19:33;1.00;99.90
3275;DHT22;1649;53.672;10.064;2023-12-07T05:21:58;1.00;99.90
3275;DHT22;1649;53.672;10.064;2023-12-07T05:24:24;1.00;99.90
3275;DHT22;1649;53.672;10.064;2023-12-07T05:26:49;1.00;99.90
3275;DHT22;1649;53.672;10.064;2023-12-07T05:29:15;1.00;99.90
3275;DHT22;1649;53.672;10.064;2023-12-07T05:31:40;1.00;99.90
3275;DHT22;1649;53.672;10.064;2023-12-07T05:34:07;1.00;99.90
3275;DHT22;1649;53.672;10.064;2023-12-07T05:36:32;1.00;99.90
3275;DHT22;1649;53.672;10.064;2023-12-07T05:38:58;1.00;99.90
3275;DHT22;1649;53.672;10.064;2023-12-07T05:41:24;1.00;99.90
3275;DHT22;1649;53.672;10.064;2023-12-07T05:43:51;1.00;99.90
3275;DHT22;1649;53.672;10.064;2023-12-07T05:46:16;1.00;99.90
3275;DHT22;1649;53.672;10.064;2023-12-07T05:48:42;1.00;99.90
3275;DHT22;1649;53.672;10.064;2023-12-07T05:51:15;1.00;99.90
3275;DHT22;1649;53.672;10.064;2023-12-07T05:53:41;1.00;99.90
3275;DHT22;1649;53.672;10.064;2023-12-07T05:56:07;1.00;99.90
3275;DHT22;1649;53.672;10.064;2023-12-07T05:58:32;1.00;99.90
3275;DHT22;1649;53.672;10.064;2023-12-07T06:00:59;1.00;99.90
3275;DHT22;1649;53.672;10.064;2023-12-07T06:03:25;1.00;99.90
3275;DHT22;1649;53.672;10.064;2023-12-07T06:05:51;1.00;99.90
3275;DHT22;1649;53.672;10.064;2023-12-07T06:08:17;1.10;99.90
3275;DHT22;1649;53.672;10.064;2023-12-07T06:10:42;1.10;99.90
3275;DHT22;1649;53.672;10.064;2023-12-07T06:13:07;1.10;99.90
3275;DHT22;1649;53.672;10.064;2023-12-07T06:15:33;1.10;99.90
3275;DHT22;1649;53.672;10.064;2023-12-07T06:17:59;1.10;99.90
3275;DHT22;1649;53.672;10.064;2023-12-07T06:20:24;1.10;99.90
3275;DHT22;1649;53.672;10.064;2023-12-07T06:22:50;1.10;99.90
3275;DHT22;1649;53.672;10.064;2023-12-07T06:25:15;1.10;99.90
3275;DHT22;1649;53.672;10.064;2023-12-07T06:27:41;1.10;99.90
3275;DHT22;1649;53.672;10.064;2023-12-07T06:30:07;1.10;99.90
3275;DHT22;1649;53.672;10.064;2023-12-07T06:32:33;1.10;99.90
3275;DHT22;1649;53.672;10.064;2023-12-07T06:34:59;1.10;99.90
3275;DHT22;1649;53.672;10.064;2023-12-07T06:37:24;1.10;99.90
3275;DHT22;1649;53.672;10.064;2023-12-07T06:39:50;1.20;99.90
3275;DHT22;1649;53.672;10.064;2023-12-07T06:42:16;1.20;99.90
3275;DHT22;1649;53.672;10.064;2023-12-07T06:44:48;1.20;99.90
3275;DHT22;1649;53.672;10.064;2023-12-07T06:47:14;1.20;99.90
3275;DHT22;1649;53.672;10.064;2023-12-07T06:49:40;1.20;99.90
3275;DHT22;1649;53.672;10.064;2023-12-07T06:52:06;1.20;99.90
3275;DHT22;1649;53.672;10.064;2023-12-07T06:54:31;1.20;99.90
3275;DHT22;1649;53.672;10.064;2023-12-07T06:56:57;1.20;99.90
3275;DHT22;1649;53.672;10.064;2023-12-07T06:59:22;1.20;99.90
3275;DHT22;1649;53.672;10.064;2023-12-07T07:01:47;1.30;99.90
3275;DHT22;1649;53.672;10.064;2023-12-07T07:04:14;1.30;99.90
3275;DHT22;1649;53.672;10.064;2023-12-07T07:06:42;1.20;99.90
3275;DHT22;1649;53.672;10.064;2023-12-07T07:09:08;1.20;99.90
3275;DHT22;1649;53.672;10.064;2023-12-07T07:11:33;1.20;99.90
3275;DHT22;1649;53.672;10.064;2023-12-07T07:14:00;1.20;99.90
3275;DHT22;1649;53.672;10.064;2023-12-07T07:16:25;1.20;99.90
3275;DHT22;1649;53.672;10.064;2023-12-07T07:18:50;1.20;99.90
3275;DHT22;1649;53.672;10.064;2023-12-07T07:21:16;1.20;99.90
3275;DHT22;1649;53.672;10.064;2023-12-07T07:23:41;1.20;99.90
3275;DHT22;1649;53.672;10.064;2023-12-07T07:26:07;1.20;99.90
3275;DHT22;1649;53.672;10.064;2023-12-07T07:28:33;1.20;99.90
3275;DHT22;1649;53.672;10.064;2023-12-07T07:31:00;1.10;99.90
3275;DHT22;1649;53.672;10.064;2023-12-07T07:33:25;1.20;99.90
3275;DHT22;1649;53.672;10.064;2023-12-07T07:35:50;1.20;99.90
3275;DHT22;1649;53.672;10.064;2023-12-07T07:38:16;1.10;99.90
3275;DHT22;1649;53.672;10.064;2023-12-07T07:40:41;1.20;99.90
3275;DHT22;1649;53.672;10.064;2023-12-07T07:43:07;1.20;99.90
3275;DHT22;1649;53.672;10.064;2023-12-07T07:45:33;1.20;99.90
3275;DHT22;1649;53.672;10.064;2023-12-07T07:47:58;1.20;99.90
3275;DHT22;1649;53.672;10.064;2023-12-07T07:50:24;1.20;99.90
3275;DHT22;1649;53.672;10.064;2023-12-07T07:52:49;1.10;99.90
3275;DHT22;1649;53.672;10.064;2023-12-07T07:55:15;1.10;99.90
3275;DHT22;1649;53.672;10.064;2023-12-07T07:57:40;1.20;99.90
3275;DHT22;1649;53.672;10.064;2023-12-07T08:00:06;1.20;99.90
3275;DHT22;1649;53.672;10.064;2023-12-07T08:02:34;1.20;99.90
3275;DHT22;1649;53.672;10.064;2023-12-07T08:04:59;1.20;99.90
3275;DHT22;1649;53.672;10.064;2023-12-07T08:07:25;1.20;99.90
3275;DHT22;1649;53.672;10.064;2023-12-07T08:09:50;1.30;99.90
3275;DHT22;1649;53.672;10.064;2023-12-07T08:12:16;1.30;99.90
3275;DHT22;1649;53.672;10.064;2023-12-07T08:14:41;1.30;99.90
3275;DHT22;1649;53.672;10.064;2023-12-07T08:17:09;1.30;99.90
3275;DHT22;1649;53.672;10.064;2023-12-07T08:19:34;1.30;99.90
3275;DHT22;1649;53.672;10.064;2023-12-07T08:22:00;1.30;99.90
3275;DHT22;1649;53.672;10.064;2023-12-07T08:24:25;1.30;99.90
3275;DHT22;1649;53.672;10.064;2023-12-07T08:26:51;1.30;99.90
3275;DHT22;1649;53.672;10.064;2023-12-07T08:29:16;1.30;99.90
3275;DHT22;1649;53.672;10.064;2023-12-07T08:31:42;1.30;99.90
3275;DHT22;1649;53.672;10.064;2023-12-07T08:34:07;1.30;99.90
3275;DHT22;1649;53.672;10.064;2023-12-07T08:36:33;1.30;99.90
3275;DHT22;1649;53.672;10.064;2023-12-07T08:38:58;1.40;99.90
3275;DHT22;1649;53.672;10.064;2023-12-07T08:41:23;1.40;99.90
3275;DHT22;1649;53.672;10.064;2023-12-07T08:43:49;1.40;99.90
3275;DHT22;1649;53.672;10.064;2023-12-07T08:46:14;1.40;99.90
3275;DHT22;1649;53.672;10.064;2023-12-07T08:48:41;1.40;99.90
3275;DHT22;1649;53.672;10.064;2023-12-07T08:51:06;1.40;99.90
3275;DHT22;1649;53.672;10.064;2023-12-07T08:53:37;1.50;99.90
3275;DHT22;1649;53.672;10.064;2023-12-07T08:56:03;1.50;99.90
3275;DHT22;1649;53.672;10.064;2023-12-07T08:58:29;1.60;99.90
3275;DHT22;1649;53.672;10.064;2023-12-07T09:00:54;1.50;99.90
3275;DHT22;1649;53.672;10.064;2023-12-07T09:03:20;1.60;99.90
3275;DHT22;1649;53.672;10.064;2023-12-07T09:05:46;1.60;99.90
3275;DHT22;1649;53.672;10.064;2023-12-07T09:08:11;1.60;99.90
3275;DHT22;1649;53.672;10.064;2023-12-07T09:10:37;1.70;99.90
3275;DHT22;1649;53.672;10.064;2023-12-07T09:13:02;1.70;99.90
3275;DHT22;1649;53.672;10.064;2023-12-07T09:15:28;1.70;99.90
3275;DHT22;1649;53.672;10.064;2023-12-07T09:17:54;1.80;99.90
3275;DHT22;1649;53.672;10.064;2023-12-07T09:20:19;1.90;99.90
3275;DHT22;1649;53.672;10.064;2023-12-07T09:22:46;2.20;99.90
3275;DHT22;1649;53.672;10.064;2023-12-07T09:25:12;2.40;99.90
3275;DHT22;1649;53.672;10.064;2023-12-07T09:27:39;2.50;99.90
3275;DHT22;1649;53.672;10.064;2023-12-07T09:30:08;2.70;99.90
3275;DHT22;1649;53.672;10.064;2023-12-07T09:32:44;2.70;99.90
3275;DHT22;1649;53.672;10.064;2023-12-07T09:35:10;2.80;99.90
3275;DHT22;1649;53.672;10.064;2023-12-07T09:37:45;2.70;99.90
3275;DHT22;1649;53.672;10.064;2023-12-07T09:40:22;2.60;99.90
3275;DHT22;1649;53.672;10.064;2023-12-07T09:42:48;2.50;99.90
3275;DHT22;1649;53.672;10.064;2023-12-07T09:45:15;2.40;99.90
3275;DHT22;1649;53.672;10.064;2023-12-07T09:47:42;2.30;99.90
3275;DHT22;1649;53.672;10.064;2023-12-07T09:50:09;2.20;99.90
3275;DHT22;1649;53.672;10.064;2023-12-07T09:52:35;2.20;99.90
3275;DHT22;1649;53.672;10.064;2023-12-07T09:55:02;2.10;99.90
3275;DHT22;1649;53.672;10.064;2023-12-07T09:57:28;2.10;99.90
3275;DHT22;1649;53.672;10.064;2023-12-07T09:59:54;2.10;99.90
3275;DHT22;1649;53.672;10.064;2023-12-07T10:02:20;2.10;99.90
3275;DHT22;1649;53.672;10.064;2023-12-07T10:04:46;2.10;99.90
3275;DHT22;1649;53.672;10.064;2023-12-07T10:07:13;2.20;99.90
3275;DHT22;1649;53.672;10.064;2023-12-07T10:09:41;2.40;99.90
3275;DHT22;1649;53.672;10.064;2023-12-07T10:12:07;2.40;99.90
3275;DHT22;1649;53.672;10.064;2023-12-07T10:14:33;2.50;99.90
3275;DHT22;1649;53.672;10.064;2023-12-07T10:17:00;2.50;99.90
3275;DHT22;1649;53.672;10.064;2023-12-07T10:19:25;2.60;99.90
3275;DHT22;1649;53.672;10.064;2023-12-07T10:21:53;2.60;99.90
3275;DHT22;1649;53.672;10.064;2023-12-07T10:24:23;2.60;99.90
3275;DHT22;1649;53.672;10.064;2023-12-07T10:26:50;2.60;99.90
3275;DHT22;1649;53.672;10.064;2023-12-07T10:29:18;2.60;99.90
3275;DHT22;1649;53.672;10.064;2023-12-07T10:31:45;2.70;99.90
3275;DHT22;1649;53.672;10.064;2023-12-07T10:34:12;2.70;99.90
3275;DHT22;1649;53.672;10.064;2023-12-07T10:36:38;2.60;99.90
3275;DHT22;1649;53.672;10.064;2023-12-07T10:39:03;2.60;99.90
3275;DHT22;1649;53.672;10.064;2023-12-07T10:41:33;2.70;99.90
3275;DHT22;1649;53.672;10.064;2023-12-07T10:44:04;2.70;99.90
3275;DHT22;1649;53.672;10.064;2023-12-07T10:46:33;2.80;99.90
3275;DHT22;1649;53.672;10.064;2023-12-07T10:49:07;2.80;99.90
3275;DHT22;1649;53.672;10.064;2023-12-07T10:51:49;2.80;99.90
3275;DHT22;1649;53.672;10.064;2023-12-07T10:54:16;2.80;99.90
3275;DHT22;1649;53.672;10.064;2023-12-07T10:56:45;2.80;99.90
3275;DHT22;1649;53.672;10.064;2023-12-07T10:59:12;2.80;99.90
3275;DHT22;1649;53.672;10.064;2023-12-07T11:01:42;2.70;99.90
3275;DHT22;1649;53.672;10.064;2023-12-07T11:04:14;2.70;99.90
3275;DHT22;1649;53.672;10.064;2023-12-07T11:06:40;2.60;99.90
3275;DHT22;1649;53.672;10.064;2023-12-07T11:09:09;2.60;99.90
3275;DHT22;1649;53.672;10.064;2023-12-07T11:11:58;2.70;99.90
3275;DHT22;1649;53.672;10.064;2023-12-07T11:14:25;2.70;99.90
3275;DHT22;1649;53.672;10.064;2023-12-07T11:16:52;2.70;99.90
3275;DHT22;1649;53.672;10.064;2023-12-07T11:22:06;2.90;99.90
3275;DHT22;1649;53.672;10.064;2023-12-07T11:24:31;3.00;99.90
3275;DHT22;1649;53.672;10.064;2023-12-07T11:26:58;3.10;99.90
3275;DHT22;1649;53.672;10.064;2023-12-07T11:29:31;3.10;99.90
3275;DHT22;1649;53.672;10.064;2023-12-07T11:32:01;3.10;99.90
3275;DHT22;1649;53.672;10.064;2023-12-07T11:34:36;3.10;99.90
3275;DHT22;1649;53.672;10.064;2023-12-07T11:37:02;3.00;99.90
3275;DHT22;1649;53.672;10.064;2023-12-07T11:39:29;3.00;99.90
3275;DHT22;1649;53.672;10.064;2023-12-07T11:42:06;2.90;99.90
3275;DHT22;1649;53.672;10.064;2023-12-07T11:44:34;2.80;99.90
3275;DHT22;1649;53.672;10.064;2023-12-07T11:47:00;2.80;99.90
3275;DHT22;1649;53.672;10.064;2023-12-07T11:49:26;2.70;99.90
3275;DHT22;1649;53.672;10.064;2023-12-07T11:51:52;2.70;99.90
3275;DHT22;1649;53.672;10.064;2023-12-07T11:54:17;2.70;99.90
3275;DHT22;1649;53.672;10.064;2023-12-07T11:56:43;2.70;99.90
3275;DHT22;1649;53.672;10.064;2023-12-07T11:59:09;2.60;99.90
3275;DHT22;1649;53.672;10.064;2023-12-07T12:01:35;2.60;99.90
3275;DHT22;1649;53.672;10.064;2023-12-07T12:04:00;2.60;99.90
3275;DHT22;1649;53.672;10.064;2023-12-07T12:06:26;2.70;99.90
3275;DHT22;1649;53.672;10.064;2023-12-07T12:08:51;2.60;99.90
3275;DHT22;1649;53.672;10.064;2023-12-07T12:11:18;2.60;99.90
3275;DHT22;1649;53.672;10.064;2023-12-07T12:13:45;2.60;99.90
3275;DHT22;1649;53.672;10.064;2023-12-07T12:16:11;2.70;99.90
3275;DHT22;1649;53.672;10.064;2023-12-07T12:18:37;2.70;99.90
3275;DHT22;1649;53.672;10.064;2023-12-07T12:21:03;2.70;99.90
3275;DHT22;1649;53.672;10.064;2023-12-07T12:23:29;2.70;99.90
3275;DHT22;1649;53.672;10.064;2023-12-07T12:25:55;2.70;99.90
3275;DHT22;1649;53.672;10.064;2023-12-07T12:28:21;2.70;99.90
3275;DHT22;1649;53.672;10.064;2023-12-07T12:30:48;2.60;99.90
3275;DHT22;1649;53.672;10.064;2023-12-07T12:33:14;2.60;99.90
3275;DHT22;1649;53.672;10.064;2023-12-07T12:35:40;2.50;99.90
3275;DHT22;1649;53.672;10.064;2023-12-07T12:38:12;2.50;99.90
3275;DHT22;1649;53.672;10.064;2023-12-07T12:40:38;2.50;99.90
3275;DHT22;1649;53.672;10.064;2023-12-07T12:43:04;2.60;99.90
3275;DHT22;1649;53.672;10.064;2023-12-07T12:45:30;2.80;99.90
3275;DHT22;1649;53.672;10.064;2023-12-07T12:47:58;2.70;99.90
3275;DHT22;1649;53.672;10.064;2023-12-07T12:50:37;2.70;99.90
3275;DHT22;1649;53.672;10.064;2023-12-07T12:53:05;2.80;99.90
3275;DHT22;1649;53.672;10.064;2023-12-07T12:55:37;2.70;99.90
3275;DHT22;1649;53.672;10.064;2023-12-07T12:58:05;2.70;99.90
3275;DHT22;1649;53.672;10.064;2023-12-07T13:00:32;2.60;99.90
3275;DHT22;1649;53.672;10.064;2023-12-07T13:03:02;2.60;99.90
3275;DHT22;1649;53.672;10.064;2023-12-07T13:05:28;2.60;99.90
3275;DHT22;1649;53.672;10.064;2023-12-07T13:07:54;2.60;99.90
3275;DHT22;1649;53.672;10.064;2023-12-07T13:10:19;2.60;99.90
3275;DHT22;1649;53.672;10.064;2023-12-07T13:12:46;2.60;99.90
3275;DHT22;1649;53.672;10.064;2023-12-07T13:15:12;2.60;99.90
3275;DHT22;1649;53.672;10.064;2023-12-07T13:17:41;2.60;99.90
3275;DHT22;1649;53.672;10.064;2023-12-07T13:20:08;2.60;99.90
3275;DHT22;1649;53.672;10.064;2023-12-07T13:22:42;2.60;99.90
3275;DHT22;1649;53.672;10.064;2023-12-07T13:25:12;2.60;99.90
3275;DHT22;1649;53.672;10.064;2023-12-07T13:27:40;2.60;99.90
3275;DHT22;1649;53.672;10.064;2023-12-07T13:30:05;2.60;99.90
3275;DHT22;1649;53.672;10.064;2023-12-07T13:32:35;2.70;99.90
3275;DHT22;1649;53.672;10.064;2023-12-07T13:35:03;2.70;99.90
3275;DHT22;1649;53.672;10.064;2023-12-07T13:37:28;2.80;99.90
3275;DHT22;1649;53.672;10.064;2023-12-07T13:39:54;2.80;99.90
3275;DHT22;1649;53.672;10.064;2023-12-07T13:42:24;2.80;99.90
3275;DHT22;1649;53.672;10.064;2023-12-07T13:44:53;2.80;99.90
3275;DHT22;1649;53.672;10.064;2023-12-07T13:47:18;2.80;99.90
3275;DHT22;1649;53.672;10.064;2023-12-07T13:49:45;2.80;99.90
3275;DHT22;1649;53.672;10.064;2023-12-07T13:52:11;2.80;99.90
3275;DHT22;1649;53.672;10.064;2023-12-07T13:54:36;2.80;99.90
3275;DHT22;1649;53.672;10.064;2023-12-07T13:57:02;2.80;99.90
3275;DHT22;1649;53.672;10.064;2023-12-07T13:59:29;2.70;99.90
3275;DHT22;1649;53.672;10.064;2023-12-07T14:01:54;2.60;99.90
3275;DHT22;1649;53.672;10.064;2023-12-07T14:04:20;2.60;99.90
3275;DHT22;1649;53.672;10.064;2023-12-07T14:06:46;2.60;99.90
3275;DHT22;1649;53.672;10.064;2023-12-07T14:09:12;2.60;99.90
3275;DHT22;1649;53.672;10.064;2023-12-07T14:11:37;2.50;99.90
3275;DHT22;1649;53.672;10.064;2023-12-07T14:14:04;2.50;99.90
3275;DHT22;1649;53.672;10.064;2023-12-07T14:16:30;2.50;99.90
3275;DHT22;1649;53.672;10.064;2023-12-07T14:18:55;2.40;99.90
3275;DHT22;1649;53.672;10.064;2023-12-07T14:21:21;2.30;99.90
3275;DHT22;1649;53.672;10.064;2023-12-07T14:23:47;2.30;99.90
3275;DHT22;1649;53.672;10.064;2023-12-07T14:26:12;2.30;99.90
3275;DHT22;1649;53.672;10.064;2023-12-07T14:28:38;2.30;99.90
3275;DHT22;1649;53.672;10.064;2023-12-07T14:31:03;2.20;99.90
3275;DHT22;1649;53.672;10.064;2023-12-07T14:33:29;2.20;99.90
3275;DHT22;1649;53.672;10.064;2023-12-07T14:35:55;2.10;99.90
3275;DHT22;1649;53.672;10.064;2023-12-07T14:38:20;2.10;99.90
3275;DHT22;1649;53.672;10.064;2023-12-07T14:40:46;2.10;99.90
3275;DHT22;1649;53.672;10.064;2023-12-07T14:43:11;2.10;99.90
3275;DHT22;1649;53.672;10.064;2023-12-07T14:45:37;2.10;99.90
3275;DHT22;1649;53.672;10.064;2023-12-07T14:48:02;2.00;99.90
3275;DHT22;1649;53.672;10.064;2023-12-07T14:50:28;2.00;99.90
3275;DHT22;1649;53.672;10.064;2023-12-07T14:52:53;2.00;99.90
3275;DHT22;1649;53.672;10.064;2023-12-07T14:55:19;2.00;99.90
3275;DHT22;1649;53.672;10.064;2023-12-07T14:57:45;2.00;99.90
3275;DHT22;1649;53.672;10.064;2023-12-07T15:00:11;2.00;99.90
3275;DHT22;1649;53.672;10.064;2023-12-07T15:02:37;2.00;99.90
3275;DHT22;1649;53.672;10.064;2023-12-07T15:05:02;1.90;99.90
3275;DHT22;1649;53.672;10.064;2023-12-07T15:07:29;1.80;99.90
3275;DHT22;1649;53.672;10.064;2023-12-07T15:09:55;1.90;99.90
3275;DHT22;1649;53.672;10.064;2023-12-07T15:12:20;1.90;99.90
3275;DHT22;1649;53.672;10.064;2023-12-07T15:14:46;1.90;99.90
3275;DHT22;1649;53.672;10.064;2023-12-07T15:17:11;1.90;99.90
3275;DHT22;1649;53.672;10.064;2023-12-07T15:19:37;1.90;99.90
3275;DHT22;1649;53.672;10.064;2023-12-07T15:22:03;1.90;99.90
3275;DHT22;1649;53.672;10.064;2023-12-07T15:24:30;1.80;99.90
3275;DHT22;1649;53.672;10.064;2023-12-07T15:26:55;1.80;99.90
3275;DHT22;1649;53.672;10.064;2023-12-07T15:29:21;1.80;99.90
3275;DHT22;1649;53.672;10.064;2023-12-07T15:31:46;1.80;99.90
3275;DHT22;1649;53.672;10.064;2023-12-07T15:34:12;1.70;99.90
3275;DHT22;1649;53.672;10.064;2023-12-07T15:36:37;1.70;99.90
3275;DHT22;1649;53.672;10.064;2023-12-07T15:39:03;1.60;99.90
3275;DHT22;1649;53.672;10.064;2023-12-07T15:41:28;1.70;99.90
3275;DHT22;1649;53.672;10.064;2023-12-07T15:43:54;1.60;99.90
3275;DHT22;1649;53.672;10.064;2023-12-07T15:46:20;1.70;99.90
3275;DHT22;1649;53.672;10.064;2023-12-07T15:48:46;1.60;99.90
3275;DHT22;1649;53.672;10.064;2023-12-07T15:51:11;1.60;99.90
3275;DHT22;1649;53.672;10.064;2023-12-07T15:53:37;1.60;99.90
3275;DHT22;1649;53.672;10.064;2023-12-07T15:56:04;1.60;99.90
3275;DHT22;1649;53.672;10.064;2023-12-07T15:58:29;1.60;99.90
3275;DHT22;1649;53.672;10.064;2023-12-07T16:00:55;1.60;99.90